createdAt,value
2022-11-17T06:00:30.587Z,7.31
2022-11-17T06:03:02.423Z,7.29
2022-11-17T06:05:29.050Z,7.27
2022-11-17T06:07:58.403Z,7.27
2022-11-17T06:10:29.364Z,7.26
2022-11-17T06:12:56.614Z,7.23
2022-11-17T06:15:23.771Z,7.22
2022-11-17T06:17:52.942Z,7.23
2022-11-17T06:20:24.488Z,7.22
2022-11-17T06:22:51.896Z,7.21
2022-11-17T06:25:20.605Z,7.22
2022-11-17T06:27:50.800Z,7.24
2022-11-17T06:30:17.867Z,7.25
2022-11-17T06:32:45.905Z,7.24
2022-11-17T06:35:14.375Z,7.24
2022-11-17T06:37:41.526Z,7.23
2022-11-17T06:40:09.891Z,7.23
2022-11-17T06:42:57.672Z,7.23
2022-11-17T06:45:24.344Z,7.21
2022-11-17T06:47:57.407Z,7.21
2022-11-17T06:50:24.041Z,7.21
2022-11-17T06:52:51.362Z,7.21
2022-11-17T06:55:18.491Z,7.21
2022-11-17T06:57:50.327Z,7.21
2022-11-17T07:00:20.459Z,7.21
2022-11-17T07:02:47.801Z,7.20
2022-11-17T07:05:14.506Z,7.20
2022-11-17T07:07:41.809Z,7.21
2022-11-17T07:10:08.941Z,7.20
2022-11-17T07:12:35.901Z,7.21
2022-11-17T07:15:02.493Z,7.21
2022-11-17T07:17:29.892Z,7.21
2022-11-17T07:19:56.770Z,7.21
2022-11-17T07:22:24.051Z,7.21
2022-11-17T07:24:51.035Z,7.22
2022-11-17T07:27:20.806Z,7.20
2022-11-17T07:29:47.500Z,7.20
2022-11-17T07:32:14.734Z,7.22
2022-11-17T07:34:42.551Z,7.21
2022-11-17T07:37:09.863Z,7.20
2022-11-17T07:39:36.534Z,7.20
2022-11-17T07:42:03.783Z,7.21
2022-11-17T07:44:30.723Z,7.21
2022-11-17T07:46:57.713Z,7.21
2022-11-17T07:49:24.493Z,7.22
2022-11-17T07:51:51.842Z,7.24
2022-11-17T07:54:18.517Z,7.25
2022-11-17T07:56:45.928Z,7.26
2022-11-17T07:59:17.171Z,7.27
2022-11-17T08:01:47.191Z,7.28
2022-11-17T08:04:14.303Z,7.28
2022-11-17T08:06:40.854Z,7.28
2022-11-17T08:09:10.992Z,7.29
2022-11-17T08:11:37.556Z,7.30
2022-11-17T08:14:04.524Z,7.30
2022-11-17T08:16:32.070Z,7.32
2022-11-17T08:18:59.612Z,7.32
2022-11-17T08:21:26.221Z,7.32
2022-11-17T08:23:55.337Z,7.32
2022-11-17T08:26:23.644Z,7.33
2022-11-17T08:28:56.712Z,7.34
2022-11-17T08:31:25.369Z,7.35
2022-11-17T08:33:52.607Z,7.36
2022-11-17T08:36:19.238Z,7.37
2022-11-17T08:38:46.198Z,7.38
2022-11-17T08:41:12.733Z,7.39
2022-11-17T08:43:39.860Z,7.38
2022-11-17T08:46:13.721Z,7.39
2022-11-17T08:48:41.279Z,7.39
2022-11-17T08:51:09.234Z,7.40
2022-11-17T08:53:36.465Z,7.39
2022-11-17T08:56:10.538Z,7.41
2022-11-17T08:58:44.866Z,7.40
2022-11-17T09:01:15.525Z,7.41
2022-11-17T09:03:44.358Z,7.41
2022-11-17T09:06:12.433Z,7.39
2022-11-17T09:08:55.985Z,7.40
2022-11-17T09:11:24.858Z,7.41
2022-11-17T09:13:52.048Z,7.43
2022-11-17T09:16:18.636Z,7.43
2022-11-17T09:18:45.782Z,7.46
2022-11-17T09:21:21.428Z,7.47
2022-11-17T09:23:48.448Z,7.48
2022-11-17T09:26:16.487Z,7.49
2022-11-17T09:28:44.779Z,7.50
2022-11-17T09:31:21.040Z,7.51
2022-11-17T09:33:48.532Z,7.50
2022-11-17T09:36:16.691Z,7.52
2022-11-17T09:38:44.128Z,7.55
2022-11-17T09:41:30.055Z,7.54
2022-11-17T09:44:08.841Z,7.55
2022-11-17T09:47:03.468Z,7.57
2022-11-17T09:49:38.625Z,7.58
2022-11-17T09:52:18.220Z,7.59
2022-11-17T09:54:59.516Z,7.60
2022-11-17T09:57:33.924Z,7.62
2022-11-17T10:00:06.525Z,7.63
2022-11-17T10:02:33.555Z,7.66
2022-11-17T10:05:01.142Z,7.65
2022-11-17T10:07:30.626Z,7.68
2022-11-17T10:10:00.457Z,7.68
2022-11-17T10:12:34.689Z,7.69
2022-11-17T10:15:21.209Z,7.72
2022-11-17T10:17:47.815Z,7.72
2022-11-17T10:20:21.050Z,7.72
2022-11-17T10:22:50.014Z,7.73
2022-11-17T10:25:38.265Z,7.74
2022-11-17T10:28:22.178Z,7.74
2022-11-17T10:31:01.939Z,7.76
2022-11-17T10:33:37.120Z,7.75
2022-11-17T10:36:08.182Z,7.78
2022-11-17T10:38:35.465Z,7.78
2022-11-17T10:41:03.115Z,7.80
2022-11-17T10:43:37.438Z,7.80
2022-11-17T10:46:12.723Z,7.81
2022-11-17T10:48:53.792Z,7.84
2022-11-17T10:51:20.454Z,7.86
2022-11-17T10:54:09.352Z,7.87
2022-11-17T10:56:43.917Z,7.89
2022-11-17T10:59:21.160Z,7.91
2022-11-17T11:01:50.855Z,7.93
2022-11-17T11:04:42.037Z,7.96
2022-11-17T11:07:11.172Z,7.96
2022-11-17T11:10:03.142Z,7.97
2022-11-17T11:12:53.671Z,8.00
2022-11-17T11:15:23.473Z,8.02
2022-11-17T11:17:51.172Z,8.04
2022-11-17T11:20:30.582Z,8.05
2022-11-17T11:22:59.848Z,8.07
2022-11-17T11:25:49.381Z,8.09
2022-11-17T11:28:48.011Z,8.10
2022-11-17T11:31:32.012Z,8.11
2022-11-17T11:34:22.012Z,8.13
2022-11-17T11:36:59.412Z,8.16
2022-11-17T11:39:48.108Z,8.17
2022-11-17T11:42:38.886Z,8.19
2022-11-17T11:45:13.427Z,8.21
2022-11-17T11:48:01.923Z,8.23
2022-11-17T11:50:41.471Z,8.27
2022-11-17T11:53:18.505Z,8.28
2022-11-17T11:55:49.992Z,8.30
2022-11-17T11:58:20.011Z,8.33
2022-11-17T12:01:02.372Z,8.37
2022-11-17T12:03:58.021Z,8.39
2022-11-17T12:06:43.247Z,8.42
2022-11-17T12:09:19.535Z,8.44
2022-11-17T12:12:03.369Z,8.48
2022-11-17T12:14:36.868Z,8.52
2022-11-17T12:17:05.741Z,8.55
2022-11-17T12:19:47.945Z,8.58
2022-11-17T12:22:30.174Z,8.64
2022-11-17T12:25:14.501Z,8.67
2022-11-17T12:27:48.098Z,8.73
2022-11-17T12:30:33.389Z,8.77
2022-11-17T12:33:05.479Z,8.81
2022-11-17T12:35:37.651Z,8.87
2022-11-17T12:38:22.066Z,8.90
2022-11-17T12:40:54.256Z,8.91
2022-11-17T12:43:20.734Z,8.95
2022-11-17T12:45:53.322Z,8.98
2022-11-17T12:48:34.744Z,9.02
2022-11-17T12:51:14.573Z,9.03
2022-11-17T12:54:07.001Z,9.04
2022-11-17T12:57:07.207Z,9.06
2022-11-17T13:00:07.665Z,9.09
2022-11-17T13:02:46.601Z,9.09
2022-11-17T13:05:19.630Z,9.10
2022-11-17T13:07:46.199Z,9.10
2022-11-17T13:10:30.544Z,9.11
2022-11-17T13:13:36.774Z,9.13
2022-11-17T13:16:03.761Z,9.14
2022-11-17T13:18:36.608Z,9.16
2022-11-17T13:21:04.832Z,9.18
2022-11-17T13:23:33.377Z,9.19
2022-11-17T13:26:11.329Z,9.21
2022-11-17T13:28:37.988Z,9.24
2022-11-17T13:31:04.915Z,9.26
2022-11-17T13:33:39.618Z,9.28
2022-11-17T13:36:19.686Z,9.31
2022-11-17T13:38:48.686Z,9.33
2022-11-17T13:41:17.302Z,9.37
2022-11-17T13:43:46.214Z,9.38
2022-11-17T13:46:13.013Z,9.40
2022-11-17T13:48:43.119Z,9.42
2022-11-17T13:51:40.362Z,9.44
2022-11-17T13:54:16.296Z,9.45
2022-11-17T13:56:52.775Z,9.47
2022-11-17T13:59:24.528Z,9.48
2022-11-17T14:02:16.934Z,9.50
2022-11-17T14:05:14.465Z,9.52
2022-11-17T14:07:42.957Z,9.54
2022-11-17T14:10:21.689Z,9.54
2022-11-17T14:12:53.878Z,9.57
2022-11-17T14:15:25.765Z,9.57
2022-11-17T14:17:58.340Z,9.59
2022-11-17T14:20:25.554Z,9.60
2022-11-17T14:23:17.264Z,9.61
2022-11-17T14:25:48.464Z,9.61
2022-11-17T14:28:17.266Z,9.60
2022-11-17T14:30:47.412Z,9.60
2022-11-17T14:33:14.072Z,9.60
2022-11-17T14:35:41.525Z,9.60
2022-11-17T14:38:15.010Z,9.59
2022-11-17T14:40:42.215Z,9.59
2022-11-17T14:43:08.703Z,9.58
2022-11-17T14:45:36.019Z,9.57
2022-11-17T14:48:05.809Z,9.56
2022-11-17T14:50:33.069Z,9.54
2022-11-17T14:53:00.186Z,9.54
2022-11-17T14:55:28.022Z,9.53
2022-11-17T14:57:54.612Z,9.53
2022-11-17T15:00:22.254Z,9.51
2022-11-17T15:02:48.960Z,9.51
2022-11-17T15:05:16.128Z,9.49
2022-11-17T15:07:43.361Z,9.49
2022-11-17T15:10:11.271Z,9.46
2022-11-17T15:12:37.808Z,9.44
2022-11-17T15:15:05.526Z,9.43
2022-11-17T15:17:32.994Z,9.42
2022-11-17T15:20:00.166Z,9.40
2022-11-17T15:22:26.697Z,9.39
2022-11-17T15:24:53.874Z,9.36
2022-11-17T15:27:20.498Z,9.33
2022-11-17T15:29:47.688Z,9.31
2022-11-17T15:32:14.218Z,9.30
2022-11-17T15:34:41.370Z,9.28
2022-11-17T15:37:08.032Z,9.26
2022-11-17T15:39:35.508Z,9.24
2022-11-17T15:42:02.039Z,9.20
2022-11-17T15:44:29.593Z,9.19
2022-11-17T15:46:56.115Z,9.16
2022-11-17T15:49:23.276Z,9.15
2022-11-17T15:51:49.854Z,9.13
2022-11-17T15:54:20.635Z,9.12
2022-11-17T15:56:48.271Z,9.09
2022-11-17T15:59:15.543Z,9.08
2022-11-17T16:01:42.435Z,9.04
2022-11-17T16:04:11.833Z,9.03
2022-11-17T16:06:41.635Z,9.00
2022-11-17T16:09:09.993Z,8.98
2022-11-17T16:11:37.207Z,8.97
2022-11-17T16:14:04.941Z,8.96
2022-11-17T16:16:37.145Z,8.95
2022-11-17T16:19:04.998Z,8.93
2022-11-17T16:21:31.786Z,8.91
2022-11-17T16:24:01.007Z,8.89
2022-11-17T16:26:29.286Z,8.88
2022-11-17T16:29:01.443Z,8.85
2022-11-17T16:31:30.566Z,8.84
2022-11-17T16:34:00.182Z,8.82
2022-11-17T16:36:35.558Z,8.81
2022-11-17T16:39:05.869Z,8.78
2022-11-17T16:41:37.641Z,8.77
2022-11-17T16:44:12.267Z,8.74
2022-11-17T16:46:42.052Z,8.72
2022-11-17T16:49:12.412Z,8.70
2022-11-17T16:51:39.395Z,8.68
2022-11-17T16:54:11.367Z,8.65
2022-11-17T16:56:38.050Z,8.64
2022-11-17T16:59:05.371Z,8.60
2022-11-17T17:01:35.271Z,8.60
2022-11-17T17:04:05.894Z,8.59
2022-11-17T17:06:34.148Z,8.57
2022-11-17T17:09:04.705Z,8.55
2022-11-17T17:11:32.699Z,8.53
2022-11-17T17:14:03.005Z,8.52
2022-11-17T17:16:31.207Z,8.51
2022-11-17T17:19:04.306Z,8.50
2022-11-17T17:21:32.501Z,8.48
2022-11-17T17:24:00.042Z,8.47
2022-11-17T17:26:28.851Z,8.45
2022-11-17T17:28:58.411Z,8.41
2022-11-17T17:31:26.581Z,8.39
2022-11-17T17:33:54.980Z,8.36
2022-11-17T17:36:24.285Z,8.35
2022-11-17T17:38:56.127Z,8.33
2022-11-17T17:41:29.387Z,8.33
2022-11-17T17:44:02.405Z,8.31
2022-11-17T17:46:30.875Z,8.30
2022-11-17T17:48:58.635Z,8.29
2022-11-17T17:51:26.994Z,8.27
2022-11-17T17:53:56.103Z,8.27
2022-11-17T17:56:23.468Z,8.26
2022-11-17T17:58:51.602Z,8.25
2022-11-17T18:01:37.048Z,8.23
2022-11-17T18:04:05.339Z,8.23
2022-11-17T18:06:39.287Z,8.23
2022-11-17T18:09:07.912Z,8.21
2022-11-17T18:11:35.522Z,8.20
2022-11-17T18:14:02.866Z,8.18
2022-11-17T18:16:31.845Z,8.17
2022-11-17T18:19:09.474Z,8.15
2022-11-17T18:21:36.412Z,8.13
2022-11-17T18:24:03.620Z,8.12
2022-11-17T18:26:33.008Z,8.12
2022-11-17T18:29:05.599Z,8.10
2022-11-17T18:31:34.585Z,8.10
2022-11-17T18:34:05.807Z,8.08
2022-11-17T18:36:32.509Z,8.07
2022-11-17T18:39:00.007Z,8.05
2022-11-17T18:41:27.385Z,8.05
2022-11-17T18:43:54.988Z,8.03
2022-11-17T18:46:23.308Z,8.02
2022-11-17T18:48:56.098Z,8.00
2022-11-17T18:51:28.652Z,7.98
2022-11-17T18:53:57.836Z,7.97
2022-11-17T18:56:32.106Z,7.96
2022-11-17T18:58:59.614Z,7.95
2022-11-17T19:01:28.589Z,7.94
2022-11-17T19:03:57.290Z,7.93
2022-11-17T19:06:25.176Z,7.91
2022-11-17T19:08:52.784Z,7.90
2022-11-17T19:11:21.152Z,7.90
2022-11-17T19:13:51.236Z,7.88
2022-11-17T19:16:23.659Z,7.87
2022-11-17T19:18:53.719Z,7.85
2022-11-17T19:21:29.031Z,7.85
2022-11-17T19:24:02.757Z,7.84
2022-11-17T19:26:31.972Z,7.83
2022-11-17T19:29:02.163Z,7.82
2022-11-17T19:31:29.056Z,7.80
2022-11-17T19:33:58.021Z,7.78
2022-11-17T19:36:27.183Z,7.78
2022-11-17T19:38:56.507Z,7.77
2022-11-17T19:41:28.248Z,7.75
2022-11-17T19:43:57.687Z,7.74
2022-11-17T19:46:26.363Z,7.72
2022-11-17T19:48:53.951Z,7.74
2022-11-17T19:51:26.132Z,7.72
2022-11-17T19:53:56.112Z,7.72
2022-11-17T19:56:22.901Z,7.71
2022-11-17T19:58:50.724Z,7.71
2022-11-17T20:01:22.231Z,7.70
2022-11-17T20:03:50.781Z,7.68
2022-11-17T20:06:19.930Z,7.68
2022-11-17T20:08:49.292Z,7.67
2022-11-17T20:11:18.897Z,7.66
2022-11-17T20:13:46.969Z,7.64
2022-11-17T20:16:19.642Z,7.65
2022-11-17T20:18:51.244Z,7.64
2022-11-17T20:21:18.676Z,7.62
2022-11-17T20:23:46.365Z,7.63
2022-11-17T20:26:20.379Z,7.61
2022-11-17T20:28:48.419Z,7.61
2022-11-17T20:31:19.250Z,7.61
2022-11-17T20:33:48.963Z,7.61
2022-11-17T20:36:17.953Z,7.62
2022-11-17T20:38:49.638Z,7.61
2022-11-17T20:41:16.898Z,7.63
2022-11-17T20:43:48.736Z,7.63
2022-11-17T20:46:15.810Z,7.63
2022-11-17T20:48:43.413Z,7.64
2022-11-17T20:51:13.472Z,7.66
2022-11-17T20:53:41.157Z,7.68
2022-11-17T20:56:09.551Z,7.67
2022-11-17T20:58:37.378Z,7.68
2022-11-17T21:01:23.860Z,7.69
2022-11-17T21:03:51.494Z,7.71
2022-11-17T21:06:19.733Z,7.72
2022-11-17T21:08:47.319Z,7.72
2022-11-17T21:11:36.193Z,7.74
2022-11-17T21:14:08.355Z,7.76
2022-11-17T21:16:37.856Z,7.76
2022-11-17T21:19:05.487Z,7.77
2022-11-17T21:21:32.183Z,7.77
2022-11-17T21:23:59.963Z,7.77
2022-11-17T21:26:27.803Z,7.79
2022-11-17T21:28:55.292Z,7.79
